createdAt,value
2023-04-04T04:47:36.097Z,-3.00
2023-04-04T04:50:04.366Z,-3.20
2023-04-04T04:52:32.644Z,-3.10
2023-04-04T04:55:01.076Z,-3.10
2023-04-04T04:57:29.184Z,-3.10
2023-04-04T04:59:57.213Z,-3.00
2023-04-04T05:02:25.459Z,-2.80
2023-04-04T05:04:54.769Z,-2.80
2023-04-04T05:07:23.204Z,-2.80
2023-04-04T05:09:51.895Z,-2.70
2023-04-04T05:12:20.318Z,-2.70
2023-04-04T05:14:48.387Z,-2.70
2023-04-04T05:17:16.292Z,-2.70
2023-04-04T05:19:44.362Z,-2.60
2023-04-04T05:22:13.739Z,-2.60
2023-04-04T05:24:42.933Z,-2.50
2023-04-04T05:27:11.168Z,-2.40
2023-04-04T05:29:39.023Z,-2.40
2023-04-04T05:32:06.979Z,-2.40
2023-04-04T05:34:35.083Z,-2.30
2023-04-04T05:37:03.293Z,-2.20
2023-04-04T05:39:32.596Z,-2.20
2023-04-04T05:42:00.560Z,-2.20
2023-04-04T05:44:28.435Z,-1.60
2023-04-04T05:46:56.861Z,-0.40
2023-04-04T05:49:24.852Z,0.80
2023-04-04T05:51:52.832Z,1.40
2023-04-04T05:54:20.791Z,1.20
2023-04-04T05:56:50.250Z,0.80
2023-04-04T05:59:18.782Z,0.30
2023-04-04T06:01:46.815Z,0.10
2023-04-04T06:04:14.889Z,-0.10
2023-04-04T06:06:42.996Z,-0.30
2023-04-04T06:09:10.933Z,-0.40
2023-04-04T06:11:39.128Z,-0.40
2023-04-04T06:14:08.976Z,-0.30
2023-04-04T06:16:37.356Z,-0.30
2023-04-04T06:19:05.490Z,-0.30
2023-04-04T06:21:33.453Z,-0.10
2023-04-04T06:24:01.432Z,0.20
2023-04-04T06:26:29.397Z,0.80
2023-04-04T06:28:57.618Z,2.50
2023-04-04T06:31:27.211Z,2.90
2023-04-04T06:33:55.359Z,3.90
2023-04-04T06:36:23.467Z,4.80
2023-04-04T06:38:51.533Z,5.40
2023-04-04T06:41:19.604Z,6.40
2023-04-04T06:43:48.548Z,6.70
2023-04-04T14:02:34.917Z,7.00
2023-04-04T14:05:02.861Z,6.80
2023-04-04T14:07:30.769Z,6.70
2023-04-04T14:09:58.873Z,6.70
2023-04-04T14:12:27.302Z,6.60
2023-04-04T14:14:55.241Z,6.50
2023-04-04T14:17:23.360Z,6.60
2023-04-04T14:19:52.776Z,6.70
2023-04-04T14:22:20.680Z,6.90
2023-04-04T14:24:48.592Z,6.80
2023-04-04T14:27:16.540Z,6.80
2023-04-04T14:29:45.577Z,6.70
2023-04-04T14:32:13.550Z,6.40
2023-04-04T14:34:41.506Z,6.60
2023-04-04T14:37:10.791Z,6.50
2023-04-04T14:39:38.877Z,6.50
2023-04-04T14:42:06.926Z,6.50
2023-04-04T14:44:35.400Z,6.60
2023-04-04T14:47:03.477Z,6.50
2023-04-04T14:49:31.543Z,6.40
2023-04-04T14:51:59.514Z,6.50
2023-04-04T14:54:28.892Z,6.70
2023-04-04T14:56:57.905Z,6.70
2023-04-04T14:59:25.961Z,6.80
2023-04-04T15:01:53.995Z,6.70
2023-04-04T15:04:21.959Z,6.60
2023-04-04T15:06:49.915Z,6.60
2023-04-04T15:09:18.543Z,6.60
2023-04-04T15:11:49.492Z,6.50
2023-04-04T15:14:17.488Z,6.50
2023-04-04T15:16:45.542Z,6.60
2023-04-04T15:19:13.854Z,6.50
2023-04-04T15:21:41.821Z,6.60
2023-04-04T15:24:10.020Z,6.60
2023-04-04T15:26:37.978Z,6.60
2023-04-04T15:29:07.737Z,6.80
2023-04-04T15:31:35.803Z,6.80
2023-04-04T15:34:03.808Z,6.60
2023-04-04T15:36:34.085Z,6.40
2023-04-04T15:39:02.117Z,6.40
2023-04-04T15:41:30.199Z,6.40
2023-04-04T15:43:58.563Z,6.40
2023-04-04T15:46:28.454Z,6.40
2023-04-04T15:48:56.482Z,6.40
2023-04-04T15:51:25.533Z,6.40
2023-04-04T15:53:55.521Z,6.30
2023-04-04T15:56:23.641Z,6.20
2023-04-04T15:58:51.694Z,6.30
2023-04-04T16:01:19.743Z,6.30
2023-04-04T16:03:49.294Z,6.30
2023-04-04T16:06:17.408Z,6.20
2023-04-04T16:08:45.670Z,6.30
2023-04-04T16:11:13.619Z,6.20
2023-04-04T16:13:41.718Z,6.20
2023-04-04T16:16:09.688Z,6.10
2023-04-04T16:18:37.887Z,6.10
2023-04-04T16:21:07.482Z,6.20
2023-04-04T16:23:35.744Z,6.10
2023-04-04T16:26:04.020Z,6.10
2023-04-04T16:28:32.090Z,6.00
2023-04-04T16:31:00.434Z,5.90
2023-04-04T16:33:28.521Z,5.90
2023-04-04T16:35:56.719Z,5.90
2023-04-04T16:38:26.058Z,5.80
2023-04-04T16:40:53.974Z,5.80
2023-04-04T16:43:21.979Z,5.80
2023-04-04T16:45:50.053Z,5.80
2023-04-04T16:48:18.201Z,5.80
2023-04-04T16:50:46.372Z,5.70
2023-04-04T16:53:14.301Z,5.70
2023-04-04T16:55:43.639Z,5.70
2023-04-04T16:58:11.604Z,5.60
2023-04-04T17:00:40.347Z,5.50
2023-04-04T17:03:08.582Z,5.50
2023-04-04T17:05:36.740Z,5.40
2023-04-04T17:08:04.732Z,5.30
2023-04-04T17:10:32.691Z,5.20
2023-04-04T17:13:02.219Z,5.10
2023-04-04T17:15:30.389Z,5.10
2023-04-04T17:17:58.450Z,5.00
2023-04-04T17:20:28.393Z,4.90
2023-04-04T17:22:57.888Z,4.90
2023-04-04T17:25:28.916Z,4.80
2023-04-04T17:27:56.960Z,4.70
2023-04-04T17:30:26.644Z,4.60
2023-04-04T17:32:55.175Z,4.50
2023-04-04T17:35:23.253Z,4.40
2023-04-04T17:37:51.766Z,4.40
2023-04-04T17:40:20.997Z,4.30
2023-04-04T17:42:49.150Z,4.20
2023-04-04T17:45:18.647Z,4.20
2023-04-04T17:47:48.108Z,4.10
2023-04-04T17:50:16.174Z,4.00
2023-04-04T17:52:44.141Z,3.90
2023-04-04T17:55:12.503Z,3.80
2023-04-04T17:57:41.055Z,3.70
2023-04-04T18:00:11.051Z,3.60
2023-04-04T18:02:39.346Z,3.50
2023-04-04T18:05:12.590Z,3.40
2023-04-04T18:07:40.762Z,3.30
2023-04-04T18:10:09.717Z,3.20
2023-04-04T18:12:39.142Z,3.20
2023-04-04T18:15:08.332Z,3.20
2023-04-04T18:17:36.359Z,3.10
2023-04-04T18:20:05.544Z,3.00
2023-04-04T18:22:35.765Z,2.90
2023-04-04T18:25:04.219Z,2.70
2023-04-04T18:27:32.238Z,2.60
2023-04-04T18:30:00.163Z,2.60
2023-04-04T18:32:29.212Z,2.50
2023-04-04T18:34:57.217Z,2.40
2023-04-04T18:37:25.520Z,2.40
2023-04-04T18:39:54.869Z,2.30
2023-04-04T18:42:25.003Z,2.20
2023-04-04T18:44:53.811Z,2.20
2023-04-04T18:47:22.487Z,2.20
2023-04-04T18:49:50.643Z,2.10
2023-04-04T18:52:18.548Z,2.10
2023-04-04T18:54:46.946Z,2.10
2023-04-04T18:57:16.508Z,2.10
2023-04-04T18:59:44.520Z,2.00
2023-04-04T19:02:12.483Z,2.00
2023-04-04T19:04:41.963Z,1.90
2023-04-04T19:07:12.683Z,1.80
2023-04-04T19:09:42.558Z,1.70
2023-04-04T19:12:11.388Z,1.70
2023-04-04T19:14:40.723Z,1.60
2023-04-04T19:17:09.908Z,1.40
2023-04-04T19:19:37.925Z,1.30
2023-04-04T19:22:06.127Z,1.20
2023-04-04T19:24:34.322Z,1.10
2023-04-04T19:27:03.566Z,1.00
2023-04-04T19:29:34.436Z,1.00
2023-04-04T19:32:12.313Z,1.00
2023-04-04T19:34:40.328Z,0.90
2023-04-04T19:37:10.689Z,0.90
2023-04-04T19:39:39.413Z,0.90
2023-04-04T19:42:08.422Z,0.90
2023-04-04T19:44:39.240Z,1.00
2023-04-04T19:47:11.350Z,1.00
2023-04-04T19:49:39.720Z,1.00
2023-04-04T19:52:09.696Z,1.00
2023-04-04T19:54:41.994Z,1.00
2023-04-04T19:57:16.578Z,1.00
